sensor_id;sensor_type;location;lat;lon;timestamp;temperature;humidity
1165;DHT22;571;50.930;6.926;2022-12-29T03:47:37;12.80;99.90
1165;DHT22;571;50.930;6.926;2022-12-29T03:50:04;12.80;99.90
1165;DHT22;571;50.930;6.926;2022-12-29T03:52:31;12.80;99.90
1165;DHT22;571;50.930;6.926;2022-12-29T03:54:58;12.80;99.90
1165;DHT22;571;50.930;6.926;2022-12-29T03:57:24;12.70;99.90
1165;DHT22;571;50.930;6.926;2022-12-29T03:59:51;12.70;99.90
1165;DHT22;571;50.930;6.926;2022-12-29T04:02:18;12.70;99.90
1165;DHT22;571;50.930;6.926;2022-12-29T04:04:46;12.70;99.90
1165;DHT22;571;50.930;6.926;2022-12-29T04:07:13;12.70;99.90
1165;DHT22;571;50.930;6.926;2022-12-29T04:09:40;12.70;99.90
1165;DHT22;571;50.930;6.926;2022-12-29T04:12:08;12.70;99.90
1165;DHT22;571;50.930;6.926;2022-12-29T04:14:35;12.60;99.90
1165;DHT22;571;50.930;6.926;2022-12-29T04:17:03;12.60;99.90
1165;DHT22;571;50.930;6.926;2022-12-29T04:19:30;12.60;99.90
1165;DHT22;571;50.930;6.926;2022-12-29T04:21:58;12.60;99.90
1165;DHT22;571;50.930;6.926;2022-12-29T04:24:25;12.60;99.90
1165;DHT22;571;50.930;6.926;2022-12-29T04:26:53;12.60;99.90
1165;DHT22;571;50.930;6.926;2022-12-29T04:29:20;12.60;99.90
1165;DHT22;571;50.930;6.926;2022-12-29T04:31:47;12.60;99.90
1165;DHT22;571;50.930;6.926;2022-12-29T04:34:14;12.50;99.90
1165;DHT22;571;50.930;6.926;2022-12-29T04:36:41;12.50;99.90
1165;DHT22;571;50.930;6.926;2022-12-29T04:39:11;12.50;99.90
1165;DHT22;571;50.930;6.926;2022-12-29T04:41:41;12.60;99.90
1165;DHT22;571;50.930;6.926;2022-12-29T04:44:10;12.50;99.90
1165;DHT22;571;50.930;6.926;2022-12-29T04:46:41;12.60;99.90
1165;DHT22;571;50.930;6.926;2022-12-29T04:49:10;12.60;99.90
1165;DHT22;571;50.930;6.926;2022-12-29T04:51:37;12.70;99.90
1165;DHT22;571;50.930;6.926;2022-12-29T04:54:04;12.70;99.70
1165;DHT22;571;50.930;6.926;2022-12-29T04:56:32;12.70;99.50
1165;DHT22;571;50.930;6.926;2022-12-29T04:59:00;12.70;99.40
1165;DHT22;571;50.930;6.926;2022-12-29T05:01:27;12.70;99.40
1165;DHT22;571;50.930;6.926;2022-12-29T05:03:54;12.70;99.30
1165;DHT22;571;50.930;6.926;2022-12-29T05:09:04;12.70;99.20
1165;DHT22;571;50.930;6.926;2022-12-29T05:11:35;12.70;99.10
1165;DHT22;571;50.930;6.926;2022-12-29T05:14:02;12.70;98.90
1165;DHT22;571;50.930;6.926;2022-12-29T05:16:29;12.70;98.60
1165;DHT22;571;50.930;6.926;2022-12-29T05:18:56;12.70;98.70
1165;DHT22;571;50.930;6.926;2022-12-29T05:21:24;12.70;98.40
1165;DHT22;571;50.930;6.926;2022-12-29T05:23:51;12.80;98.30
1165;DHT22;571;50.930;6.926;2022-12-29T05:26:18;12.70;98.30
1165;DHT22;571;50.930;6.926;2022-12-29T05:28:48;12.70;98.00
1165;DHT22;571;50.930;6.926;2022-12-29T05:31:15;12.70;98.20
1165;DHT22;571;50.930;6.926;2022-12-29T05:33:42;12.80;98.00
1165;DHT22;571;50.930;6.926;2022-12-29T05:36:09;12.80;98.00
1165;DHT22;571;50.930;6.926;2022-12-29T05:38:36;12.70;98.10
1165;DHT22;571;50.930;6.926;2022-12-29T05:41:03;12.70;97.90
1165;DHT22;571;50.930;6.926;2022-12-29T05:43:30;12.70;98.00
1165;DHT22;571;50.930;6.926;2022-12-29T05:45:58;12.70;98.00
1165;DHT22;571;50.930;6.926;2022-12-29T05:48:25;12.80;98.00
1165;DHT22;571;50.930;6.926;2022-12-29T05:50:52;12.80;97.90
1165;DHT22;571;50.930;6.926;2022-12-29T05:53:18;12.80;97.90
1165;DHT22;571;50.930;6.926;2022-12-29T05:55:47;12.80;97.80
1165;DHT22;571;50.930;6.926;2022-12-29T05:58:14;12.80;97.80
1165;DHT22;571;50.930;6.926;2022-12-29T06:00:41;12.90;97.90
1165;DHT22;571;50.930;6.926;2022-12-29T06:03:10;12.90;97.70
1165;DHT22;571;50.930;6.926;2022-12-29T06:05:37;12.90;97.40
1165;DHT22;571;50.930;6.926;2022-12-29T06:08:04;12.90;97.70
1165;DHT22;571;50.930;6.926;2022-12-29T06:10:31;12.90;97.90
1165;DHT22;571;50.930;6.926;2022-12-29T06:12:58;12.90;97.50
1165;DHT22;571;50.930;6.926;2022-12-29T06:15:24;12.90;97.30
1165;DHT22;571;50.930;6.926;2022-12-29T06:17:51;12.80;97.30
1165;DHT22;571;50.930;6.926;2022-12-29T06:20:19;12.90;97.20
1165;DHT22;571;50.930;6.926;2022-12-29T06:22:46;12.90;97.20
1165;DHT22;571;50.930;6.926;2022-12-29T06:25:13;12.90;97.20
1165;DHT22;571;50.930;6.926;2022-12-29T06:27:40;12.90;97.20
1165;DHT22;571;50.930;6.926;2022-12-29T06:30:08;12.90;97.30
1165;DHT22;571;50.930;6.926;2022-12-29T06:32:35;13.00;97.30
1165;DHT22;571;50.930;6.926;2022-12-29T06:35:02;12.90;97.30
1165;DHT22;571;50.930;6.926;2022-12-29T06:37:30;12.90;97.50
1165;DHT22;571;50.930;6.926;2022-12-29T06:39:57;13.00;97.30
1165;DHT22;571;50.930;6.926;2022-12-29T06:42:24;12.90;97.40
1165;DHT22;571;50.930;6.926;2022-12-29T06:44:51;13.00;97.50
1165;DHT22;571;50.930;6.926;2022-12-29T06:47:18;13.00;97.60
1165;DHT22;571;50.930;6.926;2022-12-29T06:49:48;12.90;97.60
1165;DHT22;571;50.930;6.926;2022-12-29T06:52:15;12.90;97.80
1165;DHT22;571;50.930;6.926;2022-12-29T06:54:44;12.80;98.00
1165;DHT22;571;50.930;6.926;2022-12-29T06:57:12;12.80;98.10
1165;DHT22;571;50.930;6.926;2022-12-29T06:59:41;12.80;98.20
1165;DHT22;571;50.930;6.926;2022-12-29T07:02:09;12.90;98.00
1165;DHT22;571;50.930;6.926;2022-12-29T07:04:37;12.90;97.70
1165;DHT22;571;50.930;6.926;2022-12-29T07:07:04;12.90;97.70
1165;DHT22;571;50.930;6.926;2022-12-29T07:09:31;12.90;97.30
1165;DHT22;571;50.930;6.926;2022-12-29T07:11:59;12.90;97.20
1165;DHT22;571;50.930;6.926;2022-12-29T07:14:26;12.80;97.10
1165;DHT22;571;50.930;6.926;2022-12-29T07:16:52;12.80;97.20
1165;DHT22;571;50.930;6.926;2022-12-29T07:19:22;12.70;97.00
1165;DHT22;571;50.930;6.926;2022-12-29T07:21:54;12.80;96.90
1165;DHT22;571;50.930;6.926;2022-12-29T07:24:21;12.80;97.00
1165;DHT22;571;50.930;6.926;2022-12-29T07:26:48;12.70;96.70
1165;DHT22;571;50.930;6.926;2022-12-29T07:29:16;12.80;96.80
1165;DHT22;571;50.930;6.926;2022-12-29T07:31:43;12.80;96.80
1165;DHT22;571;50.930;6.926;2022-12-29T07:34:11;12.80;96.60
1165;DHT22;571;50.930;6.926;2022-12-29T07:36:38;12.80;96.50
1165;DHT22;571;50.930;6.926;2022-12-29T07:39:05;12.80;96.40
1165;DHT22;571;50.930;6.926;2022-12-29T07:41:32;12.80;96.50
1165;DHT22;571;50.930;6.926;2022-12-29T07:44:03;12.70;96.50
1165;DHT22;571;50.930;6.926;2022-12-29T07:46:31;12.70;96.80
1165;DHT22;571;50.930;6.926;2022-12-29T07:48:58;12.70;96.90
1165;DHT22;571;50.930;6.926;2022-12-29T07:51:25;12.70;96.80
1165;DHT22;571;50.930;6.926;2022-12-29T07:53:52;12.70;96.70
1165;DHT22;571;50.930;6.926;2022-12-29T07:56:22;12.70;96.80
1165;DHT22;571;50.930;6.926;2022-12-29T07:58:50;12.70;97.00
1165;DHT22;571;50.930;6.926;2022-12-29T08:01:19;12.70;97.00
1165;DHT22;571;50.930;6.926;2022-12-29T08:03:48;12.70;96.90
1165;DHT22;571;50.930;6.926;2022-12-29T08:06:20;12.70;96.60
1165;DHT22;571;50.930;6.926;2022-12-29T08:08:50;12.80;96.50
1165;DHT22;571;50.930;6.926;2022-12-29T08:11:17;12.70;96.70
1165;DHT22;571;50.930;6.926;2022-12-29T08:13:45;12.80;96.50
1165;DHT22;571;50.930;6.926;2022-12-29T08:16:12;12.80;96.30
1165;DHT22;571;50.930;6.926;2022-12-29T08:18:39;12.60;96.30
1165;DHT22;571;50.930;6.926;2022-12-29T08:21:07;12.60;96.30
1165;DHT22;571;50.930;6.926;2022-12-29T08:23:34;12.60;96.20
1165;DHT22;571;50.930;6.926;2022-12-29T08:26:06;12.60;96.10
1165;DHT22;571;50.930;6.926;2022-12-29T08:28:33;12.70;96.20
1165;DHT22;571;50.930;6.926;2022-12-29T08:31:01;12.60;95.90
1165;DHT22;571;50.930;6.926;2022-12-29T08:33:29;12.60;95.90
1165;DHT22;571;50.930;6.926;2022-12-29T08:35:59;12.60;95.60
1165;DHT22;571;50.930;6.926;2022-12-29T08:38:28;12.50;95.40
1165;DHT22;571;50.930;6.926;2022-12-29T08:40:55;12.50;95.40
1165;DHT22;571;50.930;6.926;2022-12-29T08:43:22;12.50;95.60
1165;DHT22;571;50.930;6.926;2022-12-29T08:45:49;12.50;95.30
1165;DHT22;571;50.930;6.926;2022-12-29T08:48:22;12.50;95.20
1165;DHT22;571;50.930;6.926;2022-12-29T08:50:49;12.60;95.20
1165;DHT22;571;50.930;6.926;2022-12-29T08:53:17;12.60;94.80
1165;DHT22;571;50.930;6.926;2022-12-29T08:55:58;12.60;94.80
1165;DHT22;571;50.930;6.926;2022-12-29T08:58:25;12.50;94.70
1165;DHT22;571;50.930;6.926;2022-12-29T09:00:53;12.60;94.50
1165;DHT22;571;50.930;6.926;2022-12-29T09:03:20;12.60;94.30
1165;DHT22;571;50.930;6.926;2022-12-29T09:05:49;12.60;94.20
1165;DHT22;571;50.930;6.926;2022-12-29T09:08:17;12.50;93.90
1165;DHT22;571;50.930;6.926;2022-12-29T09:10:45;12.50;93.50
1165;DHT22;571;50.930;6.926;2022-12-29T09:13:15;12.40;93.70
1165;DHT22;571;50.930;6.926;2022-12-29T09:15:43;12.50;93.80
1165;DHT22;571;50.930;6.926;2022-12-29T09:18:11;12.50;93.70
1165;DHT22;571;50.930;6.926;2022-12-29T09:20:38;12.50;93.50
1165;DHT22;571;50.930;6.926;2022-12-29T09:23:07;12.50;93.40
1165;DHT22;571;50.930;6.926;2022-12-29T09:25:34;12.50;93.40
1165;DHT22;571;50.930;6.926;2022-12-29T09:28:01;12.40;93.40
1165;DHT22;571;50.930;6.926;2022-12-29T09:30:34;12.50;93.70
1165;DHT22;571;50.930;6.926;2022-12-29T09:33:03;12.50;93.10
1165;DHT22;571;50.930;6.926;2022-12-29T09:35:31;12.50;93.40
1165;DHT22;571;50.930;6.926;2022-12-29T09:38:01;12.50;93.20
1165;DHT22;571;50.930;6.926;2022-12-29T09:40:30;12.60;92.80
1165;DHT22;571;50.930;6.926;2022-12-29T09:43:19;12.60;92.90
1165;DHT22;571;50.930;6.926;2022-12-29T09:45:57;12.60;93.20
1165;DHT22;571;50.930;6.926;2022-12-29T09:48:30;12.70;92.80
1165;DHT22;571;50.930;6.926;2022-12-29T09:51:03;12.70;92.50
1165;DHT22;571;50.930;6.926;2022-12-29T09:53:36;12.70;92.30
1165;DHT22;571;50.930;6.926;2022-12-29T09:56:05;12.80;92.40
1165;DHT22;571;50.930;6.926;2022-12-29T09:58:40;12.80;92.50
1165;DHT22;571;50.930;6.926;2022-12-29T10:01:21;12.90;92.20
1165;DHT22;571;50.930;6.926;2022-12-29T10:03:53;12.90;92.00
1165;DHT22;571;50.930;6.926;2022-12-29T10:06:27;12.90;91.80
1165;DHT22;571;50.930;6.926;2022-12-29T10:09:02;12.80;91.80
1165;DHT22;571;50.930;6.926;2022-12-29T10:11:45;12.90;91.90
1165;DHT22;571;50.930;6.926;2022-12-29T10:14:25;13.00;91.70
1165;DHT22;571;50.930;6.926;2022-12-29T10:17:02;12.90;91.70
1165;DHT22;571;50.930;6.926;2022-12-29T10:19:43;13.00;91.50
1165;DHT22;571;50.930;6.926;2022-12-29T10:22:23;12.90;91.10
1165;DHT22;571;50.930;6.926;2022-12-29T10:24:55;13.00;90.80
1165;DHT22;571;50.930;6.926;2022-12-29T10:27:24;13.10;91.40
1165;DHT22;571;50.930;6.926;2022-12-29T10:29:54;13.10;90.70
1165;DHT22;571;50.930;6.926;2022-12-29T10:32:29;13.10;90.40
1165;DHT22;571;50.930;6.926;2022-12-29T10:35:00;13.10;90.10
1165;DHT22;571;50.930;6.926;2022-12-29T10:37:37;13.10;90.50
1165;DHT22;571;50.930;6.926;2022-12-29T10:40:16;13.10;90.30
1165;DHT22;571;50.930;6.926;2022-12-29T10:42:48;13.10;90.50
1165;DHT22;571;50.930;6.926;2022-12-29T10:45:18;13.10;90.30
1165;DHT22;571;50.930;6.926;2022-12-29T10:47:55;13.20;90.40
1165;DHT22;571;50.930;6.926;2022-12-29T10:50:26;13.20;90.40
1165;DHT22;571;50.930;6.926;2022-12-29T10:52:56;13.20;90.60
1165;DHT22;571;50.930;6.926;2022-12-29T10:55:27;13.20;90.50
1165;DHT22;571;50.930;6.926;2022-12-29T10:57:56;13.20;90.60
1165;DHT22;571;50.930;6.926;2022-12-29T11:00:26;13.30;90.00
1165;DHT22;571;50.930;6.926;2022-12-29T11:03:23;13.30;90.20
1165;DHT22;571;50.930;6.926;2022-12-29T11:05:57;13.40;90.30
1165;DHT22;571;50.930;6.926;2022-12-29T11:08:28;13.40;90.40
1165;DHT22;571;50.930;6.926;2022-12-29T11:10:59;13.40;90.10
1165;DHT22;571;50.930;6.926;2022-12-29T11:13:28;13.30;90.30
1165;DHT22;571;50.930;6.926;2022-12-29T11:15:55;13.40;90.40
1165;DHT22;571;50.930;6.926;2022-12-29T11:18:26;13.40;90.60
1165;DHT22;571;50.930;6.926;2022-12-29T11:20:55;13.40;90.40
1165;DHT22;571;50.930;6.926;2022-12-29T11:23:31;13.50;90.10
1165;DHT22;571;50.930;6.926;2022-12-29T11:26:17;13.40;90.10
1165;DHT22;571;50.930;6.926;2022-12-29T11:28:47;13.60;90.10
1165;DHT22;571;50.930;6.926;2022-12-29T11:31:28;13.50;90.20
1165;DHT22;571;50.930;6.926;2022-12-29T11:33:56;13.60;90.00
1165;DHT22;571;50.930;6.926;2022-12-29T11:36:26;13.50;90.30
1165;DHT22;571;50.930;6.926;2022-12-29T11:38:55;13.60;90.00
1165;DHT22;571;50.930;6.926;2022-12-29T11:41:26;13.60;89.40
1165;DHT22;571;50.930;6.926;2022-12-29T11:43:56;13.40;90.00
1165;DHT22;571;50.930;6.926;2022-12-29T11:46:28;13.50;89.80
1165;DHT22;571;50.930;6.926;2022-12-29T11:48:58;13.60;90.30
1165;DHT22;571;50.930;6.926;2022-12-29T11:51:31;13.50;90.10
1165;DHT22;571;50.930;6.926;2022-12-29T11:54:01;13.60;90.10
1165;DHT22;571;50.930;6.926;2022-12-29T11:56:37;13.60;90.30
1165;DHT22;571;50.930;6.926;2022-12-29T11:59:38;13.60;90.40
1165;DHT22;571;50.930;6.926;2022-12-29T12:02:36;13.70;90.50
1165;DHT22;571;50.930;6.926;2022-12-29T12:05:12;13.60;90.50
1165;DHT22;571;50.930;6.926;2022-12-29T12:07:42;13.60;90.20
1165;DHT22;571;50.930;6.926;2022-12-29T12:10:32;13.60;90.30
1165;DHT22;571;50.930;6.926;2022-12-29T12:13:08;13.60;90.00
1165;DHT22;571;50.930;6.926;2022-12-29T12:15:40;13.60;89.50
1165;DHT22;571;50.930;6.926;2022-12-29T12:18:10;13.60;89.80
1165;DHT22;571;50.930;6.926;2022-12-29T12:20:44;13.50;89.30
1165;DHT22;571;50.930;6.926;2022-12-29T12:23:24;13.40;90.00
1165;DHT22;571;50.930;6.926;2022-12-29T12:25:59;13.30;90.00
1165;DHT22;571;50.930;6.926;2022-12-29T12:28:34;13.30;90.20
1165;DHT22;571;50.930;6.926;2022-12-29T12:31:06;13.40;90.00
1165;DHT22;571;50.930;6.926;2022-12-29T12:33:41;13.40;90.20
1165;DHT22;571;50.930;6.926;2022-12-29T12:36:22;13.50;90.60
1165;DHT22;571;50.930;6.926;2022-12-29T12:38:57;13.50;90.20
1165;DHT22;571;50.930;6.926;2022-12-29T12:41:33;13.50;90.40
1165;DHT22;571;50.930;6.926;2022-12-29T12:44:10;13.60;90.40
1165;DHT22;571;50.930;6.926;2022-12-29T12:46:58;13.50;90.10
1165;DHT22;571;50.930;6.926;2022-12-29T12:49:52;13.50;90.70
1165;DHT22;571;50.930;6.926;2022-12-29T12:52:27;13.50;90.50
1165;DHT22;571;50.930;6.926;2022-12-29T12:55:12;13.40;90.50
1165;DHT22;571;50.930;6.926;2022-12-29T12:57:50;13.30;90.80
1165;DHT22;571;50.930;6.926;2022-12-29T13:00:21;13.20;91.10
1165;DHT22;571;50.930;6.926;2022-12-29T13:03:03;13.10;91.40
1165;DHT22;571;50.930;6.926;2022-12-29T13:05:38;13.20;91.20
1165;DHT22;571;50.930;6.926;2022-12-29T13:11:10;13.40;90.80
1165;DHT22;571;50.930;6.926;2022-12-29T13:13:52;13.60;90.70
1165;DHT22;571;50.930;6.926;2022-12-29T13:16:28;13.50;90.80
1165;DHT22;571;50.930;6.926;2022-12-29T13:19:01;13.50;90.50
1165;DHT22;571;50.930;6.926;2022-12-29T13:21:37;13.40;90.60
1165;DHT22;571;50.930;6.926;2022-12-29T13:24:16;13.30;90.70
1165;DHT22;571;50.930;6.926;2022-12-29T13:26:49;13.30;91.00
1165;DHT22;571;50.930;6.926;2022-12-29T13:29:20;13.30;91.20
1165;DHT22;571;50.930;6.926;2022-12-29T13:31:53;13.30;91.20
1165;DHT22;571;50.930;6.926;2022-12-29T13:34:32;13.20;91.50
1165;DHT22;571;50.930;6.926;2022-12-29T13:37:07;13.20;91.50
1165;DHT22;571;50.930;6.926;2022-12-29T13:39:39;13.20;91.50
1165;DHT22;571;50.930;6.926;2022-12-29T13:42:07;13.20;91.70
1165;DHT22;571;50.930;6.926;2022-12-29T13:44:38;13.10;91.40
1165;DHT22;571;50.930;6.926;2022-12-29T13:47:12;13.10;91.90
1165;DHT22;571;50.930;6.926;2022-12-29T13:49:42;13.00;91.80
1165;DHT22;571;50.930;6.926;2022-12-29T13:52:13;13.00;91.60
1165;DHT22;571;50.930;6.926;2022-12-29T13:54:48;13.00;91.70
1165;DHT22;571;50.930;6.926;2022-12-29T13:57:30;13.00;91.80
1165;DHT22;571;50.930;6.926;2022-12-29T14:00:02;13.00;91.90
1165;DHT22;571;50.930;6.926;2022-12-29T14:02:36;12.90;91.70
1165;DHT22;571;50.930;6.926;2022-12-29T14:05:27;13.00;91.80
1165;DHT22;571;50.930;6.926;2022-12-29T14:07:58;13.10;91.50
1165;DHT22;571;50.930;6.926;2022-12-29T14:10:34;13.10;91.80
1165;DHT22;571;50.930;6.926;2022-12-29T14:13:05;13.10;91.70
1165;DHT22;571;50.930;6.926;2022-12-29T14:15:38;13.00;92.00
1165;DHT22;571;50.930;6.926;2022-12-29T14:18:16;13.20;91.90
1165;DHT22;571;50.930;6.926;2022-12-29T14:20:52;13.20;91.80
1165;DHT22;571;50.930;6.926;2022-12-29T14:23:28;13.10;91.70
1165;DHT22;571;50.930;6.926;2022-12-29T14:26:15;13.00;92.00
1165;DHT22;571;50.930;6.926;2022-12-29T14:28:43;13.00;92.00
1165;DHT22;571;50.930;6.926;2022-12-29T14:31:41;12.90;92.20
1165;DHT22;571;50.930;6.926;2022-12-29T14:34:38;12.90;92.40
1165;DHT22;571;50.930;6.926;2022-12-29T14:37:23;12.80;92.60
1165;DHT22;571;50.930;6.926;2022-12-29T14:40:03;12.80;92.50
1165;DHT22;571;50.930;6.926;2022-12-29T14:42:32;12.70;92.60
1165;DHT22;571;50.930;6.926;2022-12-29T14:45:02;12.70;92.80
1165;DHT22;571;50.930;6.926;2022-12-29T14:47:36;12.70;92.90
1165;DHT22;571;50.930;6.926;2022-12-29T14:50:05;12.70;93.00
1165;DHT22;571;50.930;6.926;2022-12-29T14:52:42;12.60;93.40
1165;DHT22;571;50.930;6.926;2022-12-29T14:55:30;12.60;93.40
1165;DHT22;571;50.930;6.926;2022-12-29T14:58:01;12.60;93.40
1165;DHT22;571;50.930;6.926;2022-12-29T15:00:32;12.60;93.20
1165;DHT22;571;50.930;6.926;2022-12-29T15:03:04;12.50;93.40
1165;DHT22;571;50.930;6.926;2022-12-29T15:05:35;12.50;93.40
1165;DHT22;571;50.930;6.926;2022-12-29T15:08:04;12.50;92.80
1165;DHT22;571;50.930;6.926;2022-12-29T15:10:38;12.50;93.00
1165;DHT22;571;50.930;6.926;2022-12-29T15:13:17;12.50;92.70
1165;DHT22;571;50.930;6.926;2022-12-29T15:15:44;12.40;92.60
1165;DHT22;571;50.930;6.926;2022-12-29T15:18:20;12.30;92.80
1165;DHT22;571;50.930;6.926;2022-12-29T15:20:51;12.40;92.60
1165;DHT22;571;50.930;6.926;2022-12-29T15:23:18;12.40;92.70
1165;DHT22;571;50.930;6.926;2022-12-29T15:25:52;12.30;92.30
1165;DHT22;571;50.930;6.926;2022-12-29T15:28:21;12.30;92.50
1165;DHT22;571;50.930;6.926;2022-12-29T15:30:53;12.10;92.80
1165;DHT22;571;50.930;6.926;2022-12-29T15:33:22;12.20;93.00
1165;DHT22;571;50.930;6.926;2022-12-29T15:35:50;12.20;92.90
1165;DHT22;571;50.930;6.926;2022-12-29T15:38:22;12.10;92.60
1165;DHT22;571;50.930;6.926;2022-12-29T15:40:52;12.10;92.80
1165;DHT22;571;50.930;6.926;2022-12-29T15:43:39;12.00;92.90
1165;DHT22;571;50.930;6.926;2022-12-29T15:46:11;12.00;92.80
1165;DHT22;571;50.930;6.926;2022-12-29T15:48:39;11.90;92.80
1165;DHT22;571;50.930;6.926;2022-12-29T15:51:17;11.90;93.00
1165;DHT22;571;50.930;6.926;2022-12-29T15:53:47;11.80;92.80
1165;DHT22;571;50.930;6.926;2022-12-29T15:56:14;11.80;93.10
1165;DHT22;571;50.930;6.926;2022-12-29T15:58:44;11.70;93.10
1165;DHT22;571;50.930;6.926;2022-12-29T16:01:23;11.80;92.70
1165;DHT22;571;50.930;6.926;2022-12-29T16:03:53;11.80;92.90
1165;DHT22;571;50.930;6.926;2022-12-29T16:06:29;11.70;93.00
1165;DHT22;571;50.930;6.926;2022-12-29T16:08:58;11.80;92.80
1165;DHT22;571;50.930;6.926;2022-12-29T16:11:27;11.70;92.70
1165;DHT22;571;50.930;6.926;2022-12-29T16:13:57;11.70;92.90
1165;DHT22;571;50.930;6.926;2022-12-29T16:16:27;11.60;93.00
1165;DHT22;571;50.930;6.926;2022-12-29T16:18:55;11.50;93.30
1165;DHT22;571;50.930;6.926;2022-12-29T16:21:25;11.30;93.90
1165;DHT22;571;50.930;6.926;2022-12-29T16:23:54;11.30;93.70
1165;DHT22;571;50.930;6.926;2022-12-29T16:26:23;11.50;93.40
1165;DHT22;571;50.930;6.926;2022-12-29T16:28:57;11.40;93.60
1165;DHT22;571;50.930;6.926;2022-12-29T16:31:34;11.50;93.20
1165;DHT22;571;50.930;6.926;2022-12-29T16:34:12;11.50;93.30
1165;DHT22;571;50.930;6.926;2022-12-29T16:36:51;11.40;93.30
1165;DHT22;571;50.930;6.926;2022-12-29T16:39:25;11.50;93.10
1165;DHT22;571;50.930;6.926;2022-12-29T16:41:55;11.50;93.10
1165;DHT22;571;50.930;6.926;2022-12-29T16:44:27;11.30;93.60
1165;DHT22;571;50.930;6.926;2022-12-29T16:47:11;11.30;93.60
1165;DHT22;571;50.930;6.926;2022-12-29T16:49:48;11.10;93.90
1165;DHT22;571;50.930;6.926;2022-12-29T16:52:19;10.90;94.20
1165;DHT22;571;50.930;6.926;2022-12-29T16:54:51;11.00;94.30
1165;DHT22;571;50.930;6.926;2022-12-29T16:57:24;10.80;94.60
1165;DHT22;571;50.930;6.926;2022-12-29T16:59:56;10.80;95.10
1165;DHT22;571;50.930;6.926;2022-12-29T17:02:25;10.80;95.00
1165;DHT22;571;50.930;6.926;2022-12-29T17:04:53;10.80;95.20
1165;DHT22;571;50.930;6.926;2022-12-29T17:07:22;10.60;95.60
1165;DHT22;571;50.930;6.926;2022-12-29T17:09:49;10.80;95.40
1165;DHT22;571;50.930;6.926;2022-12-29T17:12:21;10.80;95.40
1165;DHT22;571;50.930;6.926;2022-12-29T17:14:49;10.80;95.50
1165;DHT22;571;50.930;6.926;2022-12-29T17:17:24;10.80;95.10
1165;DHT22;571;50.930;6.926;2022-12-29T17:19:55;11.00;94.90
1165;DHT22;571;50.930;6.926;2022-12-29T17:22:25;10.90;95.20
1165;DHT22;571;50.930;6.926;2022-12-29T17:24:54;11.00;95.00
1165;DHT22;571;50.930;6.926;2022-12-29T17:27:24;11.10;94.40
1165;DHT22;571;50.930;6.926;2022-12-29T17:29:54;11.10;94.40
1165;DHT22;571;50.930;6.926;2022-12-29T17:32:24;11.00;94.40
1165;DHT22;571;50.930;6.926;2022-12-29T17:34:51;11.00;94.30
1165;DHT22;571;50.930;6.926;2022-12-29T17:37:30;10.90;94.50
1165;DHT22;571;50.930;6.926;2022-12-29T17:39:57;10.80;94.80
1165;DHT22;571;50.930;6.926;2022-12-29T17:42:24;10.80;94.80
1165;DHT22;571;50.930;6.926;2022-12-29T17:44:51;10.80;94.70
1165;DHT22;571;50.930;6.926;2022-12-29T17:47:18;10.80;94.60
1165;DHT22;571;50.930;6.926;2022-12-29T17:49:46;11.00;94.30
1165;DHT22;571;50.930;6.926;2022-12-29T17:52:14;11.00;94.30
1165;DHT22;571;50.930;6.926;2022-12-29T17:54:45;10.80;94.40
1165;DHT22;571;50.930;6.926;2022-12-29T17:57:13;10.60;94.80
1165;DHT22;571;50.930;6.926;2022-12-29T17:59:40;10.40;95.20
1165;DHT22;571;50.930;6.926;2022-12-29T18:02:25;10.30;95.50
1165;DHT22;571;50.930;6.926;2022-12-29T18:04:55;10.30;95.50
1165;DHT22;571;50.930;6.926;2022-12-29T18:07:23;10.20;95.70
1165;DHT22;571;50.930;6.926;2022-12-29T18:09:51;10.20;95.90
1165;DHT22;571;50.930;6.926;2022-12-29T18:12:36;10.20;96.00
1165;DHT22;571;50.930;6.926;2022-12-29T18:15:05;10.20;96.10
1165;DHT22;571;50.930;6.926;2022-12-29T18:17:32;10.40;95.80
1165;DHT22;571;50.930;6.926;2022-12-29T18:20:01;10.50;95.70
1165;DHT22;571;50.930;6.926;2022-12-29T18:22:27;10.40;95.80
1165;DHT22;571;50.930;6.926;2022-12-29T18:24:54;10.50;95.70
1165;DHT22;571;50.930;6.926;2022-12-29T18:27:21;10.50;95.90
1165;DHT22;571;50.930;6.926;2022-12-29T18:29:48;10.50;95.90
1165;DHT22;571;50.930;6.926;2022-12-29T18:32:16;10.40;96.60
1165;DHT22;571;50.930;6.926;2022-12-29T18:34:43;10.50;96.40
1165;DHT22;571;50.930;6.926;2022-12-29T18:37:12;10.40;96.50
1165;DHT22;571;50.930;6.926;2022-12-29T18:39:38;10.40;95.70
1165;DHT22;571;50.930;6.926;2022-12-29T18:42:06;10.50;95.50
1165;DHT22;571;50.930;6.926;2022-12-29T18:44:34;10.80;94.40
1165;DHT22;571;50.930;6.926;2022-12-29T18:47:01;10.80;94.20
1165;DHT22;571;50.930;6.926;2022-12-29T18:49:28;10.90;94.20
1165;DHT22;571;50.930;6.926;2022-12-29T18:51:55;10.80;94.50
1165;DHT22;571;50.930;6.926;2022-12-29T18:54:29;10.80;94.20
1165;DHT22;571;50.930;6.926;2022-12-29T18:56:56;10.80;94.50
1165;DHT22;571;50.930;6.926;2022-12-29T18:59:23;10.60;94.90
1165;DHT22;571;50.930;6.926;2022-12-29T19:01:50;10.70;95.00
1165;DHT22;571;50.930;6.926;2022-12-29T19:04:17;10.70;95.10
1165;DHT22;571;50.930;6.926;2022-12-29T19:06:44;10.70;95.20
1165;DHT22;571;50.930;6.926;2022-12-29T19:09:11;10.80;95.30
1165;DHT22;571;50.930;6.926;2022-12-29T19:11:40;10.80;95.30
1165;DHT22;571;50.930;6.926;2022-12-29T19:14:13;10.80;95.40
1165;DHT22;571;50.930;6.926;2022-12-29T19:16:40;10.80;95.10
1165;DHT22;571;50.930;6.926;2022-12-29T19:19:15;10.60;95.30
1165;DHT22;571;50.930;6.926;2022-12-29T19:21:45;10.60;95.20
1165;DHT22;571;50.930;6.926;2022-12-29T19:24:12;10.40;95.50
1165;DHT22;571;50.930;6.926;2022-12-29T19:26:40;10.40;95.50
1165;DHT22;571;50.930;6.926;2022-12-29T19:29:11;10.30;95.60
1165;DHT22;571;50.930;6.926;2022-12-29T19:31:38;10.40;95.40
1165;DHT22;571;50.930;6.926;2022-12-29T19:34:05;10.50;95.10
1165;DHT22;571;50.930;6.926;2022-12-29T19:36:32;10.50;95.10
1165;DHT22;571;50.930;6.926;2022-12-29T19:38:59;10.50;95.20
1165;DHT22;571;50.930;6.926;2022-12-29T19:41:26;10.50;95.20
1165;DHT22;571;50.930;6.926;2022-12-29T19:43:54;10.50;95.10
1165;DHT22;571;50.930;6.926;2022-12-29T19:46:21;10.30;95.40
1165;DHT22;571;50.930;6.926;2022-12-29T19:48:49;10.20;95.80
1165;DHT22;571;50.930;6.926;2022-12-29T19:51:16;10.20;95.80
1165;DHT22;571;50.930;6.926;2022-12-29T19:53:43;10.20;95.70
1165;DHT22;571;50.930;6.926;2022-12-29T19:56:10;10.30;95.50
1165;DHT22;571;50.930;6.926;2022-12-29T19:58:37;10.30;95.50
1165;DHT22;571;50.930;6.926;2022-12-29T20:01:08;10.20;95.30
1165;DHT22;571;50.930;6.926;2022-12-29T20:03:36;10.00;95.90
1165;DHT22;571;50.930;6.926;2022-12-29T20:06:04;9.80;97.00
1165;DHT22;571;50.930;6.926;2022-12-29T20:08:30;9.70;97.10
1165;DHT22;571;50.930;6.926;2022-12-29T20:10:59;9.70;97.50
1165;DHT22;571;50.930;6.926;2022-12-29T20:13:26;9.80;97.20
1165;DHT22;571;50.930;6.926;2022-12-29T20:15:57;9.80;96.90
1165;DHT22;571;50.930;6.926;2022-12-29T20:18:25;9.80;97.00
1165;DHT22;571;50.930;6.926;2022-12-29T20:20:52;9.90;97.00
1165;DHT22;571;50.930;6.926;2022-12-29T20:23:19;9.70;97.30
1165;DHT22;571;50.930;6.926;2022-12-29T20:25:53;9.70;97.60
1165;DHT22;571;50.930;6.926;2022-12-29T20:28:20;9.80;96.90
1165;DHT22;571;50.930;6.926;2022-12-29T20:30:54;9.80;96.80
1165;DHT22;571;50.930;6.926;2022-12-29T20:33:21;9.60;97.40
1165;DHT22;571;50.930;6.926;2022-12-29T20:35:50;9.70;97.30